sensor_id;sensor_type;location;lat;lon;timestamp;P1;durP1;ratioP1;P2;durP2;ratioP2
65597;SDS011;52267;51.984;20.956;2022-07-29T00:01:17;9.50;;;6.00;;
65597;SDS011;52267;51.984;20.956;2022-07-29T00:03:44;7.90;;;5.60;;
65597;SDS011;52267;51.984;20.956;2022-07-29T00:06:11;11.10;;;7.10;;
65597;SDS011;52267;51.984;20.956;2022-07-29T00:08:38;10.40;;;5.80;;
65597;SDS011;52267;51.984;20.956;2022-07-29T00:11:05;10.60;;;5.90;;
65597;SDS011;52267;51.984;20.956;2022-07-29T00:13:32;10.80;;;6.40;;
65597;SDS011;52267;51.984;20.956;2022-07-29T00:15:59;8.80;;;5.80;;
65597;SDS011;52267;51.984;20.956;2022-07-29T00:18:26;10.40;;;6.40;;
65597;SDS011;52267;51.984;20.956;2022-07-29T00:20:54;10.90;;;6.10;;
65597;SDS011;52267;51.984;20.956;2022-07-29T00:23:21;8.50;;;5.60;;
65597;SDS011;52267;51.984;20.956;2022-07-29T00:25:48;11.10;;;6.50;;
65597;SDS011;52267;51.984;20.956;2022-07-29T00:28:15;10.60;;;6.30;;
65597;SDS011;52267;51.984;20.956;2022-07-29T00:30:42;9.80;;;6.00;;
65597;SDS011;52267;51.984;20.956;2022-07-29T00:33:09;10.60;;;6.00;;
65597;SDS011;52267;51.984;20.956;2022-07-29T00:35:36;9.10;;;5.70;;
65597;SDS011;52267;51.984;20.956;2022-07-29T00:38:14;8.50;;;5.80;;
65597;SDS011;52267;51.984;20.956;2022-07-29T00:40:43;8.50;;;5.40;;
65597;SDS011;52267;51.984;20.956;2022-07-29T00:43:12;8.30;;;5.40;;
65597;SDS011;52267;51.984;20.956;2022-07-29T00:45:41;10.20;;;6.00;;
65597;SDS011;52267;51.984;20.956;2022-07-29T00:48:08;8.10;;;5.70;;
65597;SDS011;52267;51.984;20.956;2022-07-29T00:50:36;10.50;;;6.10;;
65597;SDS011;52267;51.984;20.956;2022-07-29T00:53:06;9.10;;;5.80;;
65597;SDS011;52267;51.984;20.956;2022-07-29T00:55:34;9.90;;;5.60;;
65597;SDS011;52267;51.984;20.956;2022-07-29T00:58:02;12.80;;;5.80;;
65597;SDS011;52267;51.984;20.956;2022-07-29T01:00:30;8.80;;;5.60;;
65597;SDS011;52267;51.984;20.956;2022-07-29T01:02:57;7.70;;;5.70;;
65597;SDS011;52267;51.984;20.956;2022-07-29T01:05:26;6.70;;;4.60;;
65597;SDS011;52267;51.984;20.956;2022-07-29T01:07:54;9.70;;;6.00;;
65597;SDS011;52267;51.984;20.956;2022-07-29T01:10:26;7.00;;;4.70;;
65597;SDS011;52267;51.984;20.956;2022-07-29T01:12:57;9.20;;;5.90;;
65597;SDS011;52267;51.984;20.956;2022-07-29T01:15:25;9.50;;;5.50;;
65597;SDS011;52267;51.984;20.956;2022-07-29T01:18:14;9.10;;;5.50;;
65597;SDS011;52267;51.984;20.956;2022-07-29T01:26:46;8.40;;;5.40;;
65597;SDS011;52267;51.984;20.956;2022-07-29T01:29:35;12.00;;;5.10;;
65597;SDS011;52267;51.984;20.956;2022-07-29T01:32:15;6.70;;;4.70;;
65597;SDS011;52267;51.984;20.956;2022-07-29T01:34:52;8.60;;;5.10;;
65597;SDS011;52267;51.984;20.956;2022-07-29T01:37:48;8.70;;;5.50;;
65597;SDS011;52267;51.984;20.956;2022-07-29T01:40:49;9.40;;;4.90;;
65597;SDS011;52267;51.984;20.956;2022-07-29T01:43:23;6.70;;;4.80;;
65597;SDS011;52267;51.984;20.956;2022-07-29T01:46:04;7.60;;;5.00;;
65597;SDS011;52267;51.984;20.956;2022-07-29T01:51:07;7.70;;;4.90;;
65597;SDS011;52267;51.984;20.956;2022-07-29T01:56:32;7.30;;;5.20;;
65597;SDS011;52267;51.984;20.956;2022-07-29T01:59:01;7.50;;;4.80;;
65597;SDS011;52267;51.984;20.956;2022-07-29T02:01:31;8.30;;;5.10;;
65597;SDS011;52267;51.984;20.956;2022-07-29T02:04:02;9.00;;;5.10;;
65597;SDS011;52267;51.984;20.956;2022-07-29T02:06:32;7.90;;;4.90;;
65597;SDS011;52267;51.984;20.956;2022-07-29T02:09:01;9.50;;;5.50;;
65597;SDS011;52267;51.984;20.956;2022-07-29T02:11:31;7.00;;;4.60;;
65597;SDS011;52267;51.984;20.956;2022-07-29T02:14:00;6.60;;;5.00;;
65597;SDS011;52267;51.984;20.956;2022-07-29T02:16:29;8.60;;;5.40;;
65597;SDS011;52267;51.984;20.956;2022-07-29T02:18:59;9.00;;;4.80;;
65597;SDS011;52267;51.984;20.956;2022-07-29T02:21:29;6.90;;;4.60;;
65597;SDS011;52267;51.984;20.956;2022-07-29T02:24:01;7.40;;;4.80;;
65597;SDS011;52267;51.984;20.956;2022-07-29T02:26:29;8.10;;;4.80;;
65597;SDS011;52267;51.984;20.956;2022-07-29T02:28:58;6.60;;;4.40;;
65597;SDS011;52267;51.984;20.956;2022-07-29T02:31:29;8.70;;;4.70;;
65597;SDS011;52267;51.984;20.956;2022-07-29T02:34:01;10.30;;;6.20;;
65597;SDS011;52267;51.984;20.956;2022-07-29T02:36:31;8.50;;;4.90;;
65597;SDS011;52267;51.984;20.956;2022-07-29T02:39:00;8.30;;;4.80;;
65597;SDS011;52267;51.984;20.956;2022-07-29T02:41:41;6.70;;;4.70;;
65597;SDS011;52267;51.984;20.956;2022-07-29T02:44:16;8.20;;;5.00;;
65597;SDS011;52267;51.984;20.956;2022-07-29T02:46:53;8.80;;;4.80;;
65597;SDS011;52267;51.984;20.956;2022-07-29T02:52:12;6.30;;;4.30;;
65597;SDS011;52267;51.984;20.956;2022-07-29T02:55:18;8.00;;;4.80;;
65597;SDS011;52267;51.984;20.956;2022-07-29T02:58:01;7.20;;;4.90;;
65597;SDS011;52267;51.984;20.956;2022-07-29T03:00:39;7.30;;;5.10;;
65597;SDS011;52267;51.984;20.956;2022-07-29T03:03:13;8.40;;;4.70;;
65597;SDS011;52267;51.984;20.956;2022-07-29T03:05:42;8.60;;;4.90;;
65597;SDS011;52267;51.984;20.956;2022-07-29T03:08:11;9.40;;;5.80;;
65597;SDS011;52267;51.984;20.956;2022-07-29T03:10:43;6.70;;;4.30;;
65597;SDS011;52267;51.984;20.956;2022-07-29T03:13:12;6.40;;;4.40;;
65597;SDS011;52267;51.984;20.956;2022-07-29T03:15:42;8.40;;;4.90;;
65597;SDS011;52267;51.984;20.956;2022-07-29T03:18:10;7.20;;;4.30;;
65597;SDS011;52267;51.984;20.956;2022-07-29T03:20:38;6.70;;;4.00;;
65597;SDS011;52267;51.984;20.956;2022-07-29T03:23:06;7.70;;;5.10;;
65597;SDS011;52267;51.984;20.956;2022-07-29T03:25:34;11.40;;;5.00;;
65597;SDS011;52267;51.984;20.956;2022-07-29T03:28:02;7.20;;;4.80;;
65597;SDS011;52267;51.984;20.956;2022-07-29T03:30:29;9.10;;;4.90;;
65597;SDS011;52267;51.984;20.956;2022-07-29T03:32:57;8.30;;;4.40;;
65597;SDS011;52267;51.984;20.956;2022-07-29T03:35:24;6.50;;;4.10;;
65597;SDS011;52267;51.984;20.956;2022-07-29T03:37:51;7.20;;;4.60;;
65597;SDS011;52267;51.984;20.956;2022-07-29T03:40:22;6.50;;;4.80;;
65597;SDS011;52267;51.984;20.956;2022-07-29T03:42:58;9.30;;;5.10;;
65597;SDS011;52267;51.984;20.956;2022-07-29T03:45:28;6.70;;;4.60;;
65597;SDS011;52267;51.984;20.956;2022-07-29T03:48:10;7.30;;;4.80;;
65597;SDS011;52267;51.984;20.956;2022-07-29T03:50:40;8.60;;;4.80;;
65597;SDS011;52267;51.984;20.956;2022-07-29T03:53:07;6.70;;;4.60;;
65597;SDS011;52267;51.984;20.956;2022-07-29T03:55:41;9.20;;;4.80;;
65597;SDS011;52267;51.984;20.956;2022-07-29T03:58:12;6.40;;;4.80;;
65597;SDS011;52267;51.984;20.956;2022-07-29T04:00:40;6.70;;;4.50;;
65597;SDS011;52267;51.984;20.956;2022-07-29T04:03:08;9.00;;;5.40;;
65597;SDS011;52267;51.984;20.956;2022-07-29T04:05:36;9.40;;;5.20;;
65597;SDS011;52267;51.984;20.956;2022-07-29T04:08:04;8.40;;;5.70;;
65597;SDS011;52267;51.984;20.956;2022-07-29T04:10:31;10.50;;;6.00;;
65597;SDS011;52267;51.984;20.956;2022-07-29T04:12:59;7.60;;;5.00;;
65597;SDS011;52267;51.984;20.956;2022-07-29T04:15:26;11.20;;;5.70;;
65597;SDS011;52267;51.984;20.956;2022-07-29T04:17:55;8.00;;;5.50;;
65597;SDS011;52267;51.984;20.956;2022-07-29T04:20:22;9.70;;;6.50;;
65597;SDS011;52267;51.984;20.956;2022-07-29T04:22:49;9.90;;;6.10;;
65597;SDS011;52267;51.984;20.956;2022-07-29T04:25:16;9.40;;;6.70;;
65597;SDS011;52267;51.984;20.956;2022-07-29T04:27:43;9.00;;;5.90;;
65597;SDS011;52267;51.984;20.956;2022-07-29T04:30:30;9.70;;;6.00;;
65597;SDS011;52267;51.984;20.956;2022-07-29T04:32:59;8.00;;;6.20;;
65597;SDS011;52267;51.984;20.956;2022-07-29T04:35:28;9.20;;;6.10;;
65597;SDS011;52267;51.984;20.956;2022-07-29T04:37:55;8.80;;;6.10;;
65597;SDS011;52267;51.984;20.956;2022-07-29T04:40:22;8.10;;;5.50;;
65597;SDS011;52267;51.984;20.956;2022-07-29T04:42:49;11.40;;;6.30;;
65597;SDS011;52267;51.984;20.956;2022-07-29T04:45:17;8.00;;;5.90;;
65597;SDS011;52267;51.984;20.956;2022-07-29T04:47:44;8.30;;;5.80;;
65597;SDS011;52267;51.984;20.956;2022-07-29T04:50:11;10.30;;;5.90;;
65597;SDS011;52267;51.984;20.956;2022-07-29T04:52:38;10.30;;;6.40;;
65597;SDS011;52267;51.984;20.956;2022-07-29T04:55:05;8.30;;;6.60;;
65597;SDS011;52267;51.984;20.956;2022-07-29T04:57:33;8.50;;;5.30;;
65597;SDS011;52267;51.984;20.956;2022-07-29T05:00:00;8.70;;;5.40;;
65597;SDS011;52267;51.984;20.956;2022-07-29T05:02:27;11.00;;;5.50;;
65597;SDS011;52267;51.984;20.956;2022-07-29T05:04:54;8.50;;;4.90;;
65597;SDS011;52267;51.984;20.956;2022-07-29T05:07:21;7.90;;;5.00;;
65597;SDS011;52267;51.984;20.956;2022-07-29T05:09:48;6.00;;;4.50;;
65597;SDS011;52267;51.984;20.956;2022-07-29T05:12:15;7.90;;;5.20;;
65597;SDS011;52267;51.984;20.956;2022-07-29T05:14:42;10.50;;;5.30;;
65597;SDS011;52267;51.984;20.956;2022-07-29T05:17:09;11.60;;;5.20;;
65597;SDS011;52267;51.984;20.956;2022-07-29T05:19:36;6.70;;;4.80;;
65597;SDS011;52267;51.984;20.956;2022-07-29T05:22:03;8.70;;;5.00;;
65597;SDS011;52267;51.984;20.956;2022-07-29T05:24:30;8.80;;;4.70;;
65597;SDS011;52267;51.984;20.956;2022-07-29T05:26:57;7.10;;;4.00;;
65597;SDS011;52267;51.984;20.956;2022-07-29T05:29:24;8.00;;;4.30;;
65597;SDS011;52267;51.984;20.956;2022-07-29T05:31:51;8.30;;;4.60;;
65597;SDS011;52267;51.984;20.956;2022-07-29T05:34:19;7.60;;;4.10;;
65597;SDS011;52267;51.984;20.956;2022-07-29T05:36:46;7.20;;;3.90;;
65597;SDS011;52267;51.984;20.956;2022-07-29T05:39:13;8.70;;;4.30;;
65597;SDS011;52267;51.984;20.956;2022-07-29T05:41:40;5.60;;;3.90;;
65597;SDS011;52267;51.984;20.956;2022-07-29T05:44:07;6.90;;;3.80;;
65597;SDS011;52267;51.984;20.956;2022-07-29T05:46:34;7.00;;;4.10;;
65597;SDS011;52267;51.984;20.956;2022-07-29T05:49:01;7.70;;;4.30;;
65597;SDS011;52267;51.984;20.956;2022-07-29T05:51:29;6.40;;;3.80;;
65597;SDS011;52267;51.984;20.956;2022-07-29T05:53:56;7.70;;;3.50;;
65597;SDS011;52267;51.984;20.956;2022-07-29T05:56:24;5.10;;;2.90;;
65597;SDS011;52267;51.984;20.956;2022-07-29T05:58:51;5.60;;;2.70;;
65597;SDS011;52267;51.984;20.956;2022-07-29T06:01:18;5.70;;;3.00;;
65597;SDS011;52267;51.984;20.956;2022-07-29T06:03:46;5.90;;;2.50;;
65597;SDS011;52267;51.984;20.956;2022-07-29T06:06:13;6.50;;;3.00;;
65597;SDS011;52267;51.984;20.956;2022-07-29T06:08:40;6.80;;;3.00;;
65597;SDS011;52267;51.984;20.956;2022-07-29T06:11:07;5.40;;;2.70;;
65597;SDS011;52267;51.984;20.956;2022-07-29T06:13:35;8.80;;;3.00;;
65597;SDS011;52267;51.984;20.956;2022-07-29T06:16:02;5.20;;;2.80;;
65597;SDS011;52267;51.984;20.956;2022-07-29T06:18:29;5.90;;;2.80;;
65597;SDS011;52267;51.984;20.956;2022-07-29T06:20:57;6.80;;;2.40;;
65597;SDS011;52267;51.984;20.956;2022-07-29T06:23:24;5.40;;;2.90;;
65597;SDS011;52267;51.984;20.956;2022-07-29T06:25:51;5.60;;;2.80;;
65597;SDS011;52267;51.984;20.956;2022-07-29T06:28:18;7.50;;;2.60;;
65597;SDS011;52267;51.984;20.956;2022-07-29T06:30:45;4.90;;;2.60;;
65597;SDS011;52267;51.984;20.956;2022-07-29T06:33:17;6.10;;;2.40;;
65597;SDS011;52267;51.984;20.956;2022-07-29T06:35:45;5.60;;;2.80;;
65597;SDS011;52267;51.984;20.956;2022-07-29T06:38:14;4.90;;;2.60;;
65597;SDS011;52267;51.984;20.956;2022-07-29T06:40:43;3.80;;;2.40;;
65597;SDS011;52267;51.984;20.956;2022-07-29T06:43:34;3.90;;;2.50;;
65597;SDS011;52267;51.984;20.956;2022-07-29T06:46:06;3.90;;;2.40;;
65597;SDS011;52267;51.984;20.956;2022-07-29T06:48:39;5.10;;;2.20;;
65597;SDS011;52267;51.984;20.956;2022-07-29T06:51:07;4.20;;;2.20;;
65597;SDS011;52267;51.984;20.956;2022-07-29T06:53:35;5.10;;;2.40;;
65597;SDS011;52267;51.984;20.956;2022-07-29T06:56:03;4.90;;;2.10;;
65597;SDS011;52267;51.984;20.956;2022-07-29T06:58:31;5.00;;;2.00;;
65597;SDS011;52267;51.984;20.956;2022-07-29T07:01:01;3.90;;;1.90;;
65597;SDS011;52267;51.984;20.956;2022-07-29T07:05:57;3.50;;;1.80;;
65597;SDS011;52267;51.984;20.956;2022-07-29T07:08:24;4.70;;;2.00;;
65597;SDS011;52267;51.984;20.956;2022-07-29T07:10:52;5.60;;;2.10;;
65597;SDS011;52267;51.984;20.956;2022-07-29T07:13:19;3.40;;;1.70;;
65597;SDS011;52267;51.984;20.956;2022-07-29T07:15:47;3.30;;;2.00;;
65597;SDS011;52267;51.984;20.956;2022-07-29T07:18:15;4.10;;;1.80;;
65597;SDS011;52267;51.984;20.956;2022-07-29T07:20:42;4.70;;;1.90;;
65597;SDS011;52267;51.984;20.956;2022-07-29T07:23:10;5.30;;;1.80;;
65597;SDS011;52267;51.984;20.956;2022-07-29T07:25:37;3.20;;;1.60;;
65597;SDS011;52267;51.984;20.956;2022-07-29T07:28:04;4.90;;;2.20;;
65597;SDS011;52267;51.984;20.956;2022-07-29T07:30:31;4.30;;;1.80;;
65597;SDS011;52267;51.984;20.956;2022-07-29T07:32:59;4.10;;;1.60;;
65597;SDS011;52267;51.984;20.956;2022-07-29T07:35:27;5.90;;;1.80;;
65597;SDS011;52267;51.984;20.956;2022-07-29T07:37:56;2.90;;;1.60;;
65597;SDS011;52267;51.984;20.956;2022-07-29T07:40:24;4.40;;;1.50;;
65597;SDS011;52267;51.984;20.956;2022-07-29T07:42:51;4.70;;;2.20;;
65597;SDS011;52267;51.984;20.956;2022-07-29T07:45:18;3.50;;;1.60;;
65597;SDS011;52267;51.984;20.956;2022-07-29T07:47:45;3.00;;;1.60;;
65597;SDS011;52267;51.984;20.956;2022-07-29T07:50:13;5.50;;;1.60;;
65597;SDS011;52267;51.984;20.956;2022-07-29T07:52:51;4.20;;;1.50;;
65597;SDS011;52267;51.984;20.956;2022-07-29T07:55:19;3.60;;;1.40;;
65597;SDS011;52267;51.984;20.956;2022-07-29T07:57:47;3.80;;;1.50;;
65597;SDS011;52267;51.984;20.956;2022-07-29T08:00:15;5.40;;;1.90;;
65597;SDS011;52267;51.984;20.956;2022-07-29T08:02:44;4.30;;;2.00;;
65597;SDS011;52267;51.984;20.956;2022-07-29T08:05:12;3.00;;;1.70;;
65597;SDS011;52267;51.984;20.956;2022-07-29T08:07:45;3.70;;;1.70;;
65597;SDS011;52267;51.984;20.956;2022-07-29T08:10:16;4.10;;;2.00;;
65597;SDS011;52267;51.984;20.956;2022-07-29T08:13:07;3.80;;;1.50;;
65597;SDS011;52267;51.984;20.956;2022-07-29T08:15:35;3.40;;;1.60;;
65597;SDS011;52267;51.984;20.956;2022-07-29T08:18:02;4.40;;;1.70;;
65597;SDS011;52267;51.984;20.956;2022-07-29T08:20:29;3.80;;;1.50;;
65597;SDS011;52267;51.984;20.956;2022-07-29T08:22:58;3.40;;;1.70;;
65597;SDS011;52267;51.984;20.956;2022-07-29T08:25:25;2.70;;;1.50;;
65597;SDS011;52267;51.984;20.956;2022-07-29T08:27:52;4.80;;;1.60;;
65597;SDS011;52267;51.984;20.956;2022-07-29T08:30:19;3.40;;;1.80;;
65597;SDS011;52267;51.984;20.956;2022-07-29T08:32:48;3.50;;;1.60;;
65597;SDS011;52267;51.984;20.956;2022-07-29T08:35:15;3.30;;;1.50;;
65597;SDS011;52267;51.984;20.956;2022-07-29T08:37:42;3.20;;;1.50;;
65597;SDS011;52267;51.984;20.956;2022-07-29T08:40:10;3.50;;;1.40;;
65597;SDS011;52267;51.984;20.956;2022-07-29T08:42:37;2.90;;;1.40;;
65597;SDS011;52267;51.984;20.956;2022-07-29T08:45:05;3.30;;;1.50;;
65597;SDS011;52267;51.984;20.956;2022-07-29T08:47:33;4.70;;;1.50;;
65597;SDS011;52267;51.984;20.956;2022-07-29T08:50:00;3.30;;;1.50;;
65597;SDS011;52267;51.984;20.956;2022-07-29T08:52:29;3.20;;;1.50;;
65597;SDS011;52267;51.984;20.956;2022-07-29T08:54:59;3.10;;;1.70;;
65597;SDS011;52267;51.984;20.956;2022-07-29T08:57:27;4.10;;;1.40;;
65597;SDS011;52267;51.984;20.956;2022-07-29T08:59:54;4.90;;;2.00;;
65597;SDS011;52267;51.984;20.956;2022-07-29T09:02:22;4.00;;;1.50;;
65597;SDS011;52267;51.984;20.956;2022-07-29T09:04:49;3.90;;;1.30;;
65597;SDS011;52267;51.984;20.956;2022-07-29T09:07:18;2.90;;;1.60;;
65597;SDS011;52267;51.984;20.956;2022-07-29T09:09:45;3.50;;;1.30;;
65597;SDS011;52267;51.984;20.956;2022-07-29T09:12:13;6.40;;;1.50;;
65597;SDS011;52267;51.984;20.956;2022-07-29T09:14:40;3.70;;;1.40;;
65597;SDS011;52267;51.984;20.956;2022-07-29T09:17:07;2.90;;;1.30;;
65597;SDS011;52267;51.984;20.956;2022-07-29T09:19:36;3.80;;;1.90;;
65597;SDS011;52267;51.984;20.956;2022-07-29T09:22:05;4.80;;;1.60;;
65597;SDS011;52267;51.984;20.956;2022-07-29T09:24:37;3.30;;;1.60;;
65597;SDS011;52267;51.984;20.956;2022-07-29T09:27:22;3.60;;;1.70;;
65597;SDS011;52267;51.984;20.956;2022-07-29T09:30:00;3.10;;;1.10;;
65597;SDS011;52267;51.984;20.956;2022-07-29T09:32:28;4.80;;;1.50;;
65597;SDS011;52267;51.984;20.956;2022-07-29T09:35:16;4.90;;;1.30;;
65597;SDS011;52267;51.984;20.956;2022-07-29T09:37:45;3.20;;;1.30;;
65597;SDS011;52267;51.984;20.956;2022-07-29T09:40:14;4.70;;;1.40;;
65597;SDS011;52267;51.984;20.956;2022-07-29T09:45:11;3.60;;;1.60;;
65597;SDS011;52267;51.984;20.956;2022-07-29T09:47:45;3.30;;;1.20;;
65597;SDS011;52267;51.984;20.956;2022-07-29T09:50:15;3.80;;;1.70;;
65597;SDS011;52267;51.984;20.956;2022-07-29T09:52:50;4.50;;;1.70;;
65597;SDS011;52267;51.984;20.956;2022-07-29T09:55:19;4.00;;;1.30;;
65597;SDS011;52267;51.984;20.956;2022-07-29T09:57:46;2.40;;;1.10;;
65597;SDS011;52267;51.984;20.956;2022-07-29T10:00:18;3.50;;;1.20;;
65597;SDS011;52267;51.984;20.956;2022-07-29T10:02:47;3.40;;;1.40;;
65597;SDS011;52267;51.984;20.956;2022-07-29T10:07:49;3.20;;;1.20;;
65597;SDS011;52267;51.984;20.956;2022-07-29T10:15:24;3.50;;;1.20;;
65597;SDS011;52267;51.984;20.956;2022-07-29T10:17:53;3.40;;;1.30;;
65597;SDS011;52267;51.984;20.956;2022-07-29T10:20:22;3.00;;;1.50;;
65597;SDS011;52267;51.984;20.956;2022-07-29T10:22:51;3.60;;;1.40;;
65597;SDS011;52267;51.984;20.956;2022-07-29T10:25:19;3.40;;;1.30;;
65597;SDS011;52267;51.984;20.956;2022-07-29T10:27:47;8.10;;;1.60;;
65597;SDS011;52267;51.984;20.956;2022-07-29T10:30:16;4.20;;;1.10;;
65597;SDS011;52267;51.984;20.956;2022-07-29T10:36:24;3.60;;;1.20;;
65597;SDS011;52267;51.984;20.956;2022-07-29T10:39:19;4.80;;;1.20;;
65597;SDS011;52267;51.984;20.956;2022-07-29T10:42:21;2.20;;;1.00;;
65597;SDS011;52267;51.984;20.956;2022-07-29T10:44:51;5.10;;;1.60;;
65597;SDS011;52267;51.984;20.956;2022-07-29T10:47:23;3.70;;;1.10;;
65597;SDS011;52267;51.984;20.956;2022-07-29T10:50:04;4.80;;;1.30;;
65597;SDS011;52267;51.984;20.956;2022-07-29T10:55:35;2.50;;;1.10;;
65597;SDS011;52267;51.984;20.956;2022-07-29T10:58:24;2.70;;;1.10;;
65597;SDS011;52267;51.984;20.956;2022-07-29T11:00:54;2.40;;;1.10;;
65597;SDS011;52267;51.984;20.956;2022-07-29T11:06:08;2.30;;;1.20;;
65597;SDS011;52267;51.984;20.956;2022-07-29T11:08:35;6.10;;;1.20;;
65597;SDS011;52267;51.984;20.956;2022-07-29T11:13:57;3.20;;;1.50;;
65597;SDS011;52267;51.984;20.956;2022-07-29T11:16:24;3.00;;;1.40;;
65597;SDS011;52267;51.984;20.956;2022-07-29T11:21:45;3.30;;;1.10;;
65597;SDS011;52267;51.984;20.956;2022-07-29T11:24:25;3.30;;;1.10;;
65597;SDS011;52267;51.984;20.956;2022-07-29T11:27:12;3.00;;;1.20;;
65597;SDS011;52267;51.984;20.956;2022-07-29T11:29:56;4.20;;;1.20;;
65597;SDS011;52267;51.984;20.956;2022-07-29T11:32:25;3.30;;;1.10;;
65597;SDS011;52267;51.984;20.956;2022-07-29T11:35:20;2.90;;;1.10;;
65597;SDS011;52267;51.984;20.956;2022-07-29T11:38:23;2.40;;;1.00;;
65597;SDS011;52267;51.984;20.956;2022-07-29T11:43:55;2.60;;;1.00;;
65597;SDS011;52267;51.984;20.956;2022-07-29T11:46:46;2.10;;;1.00;;
65597;SDS011;52267;51.984;20.956;2022-07-29T11:49:22;3.00;;;1.10;;
65597;SDS011;52267;51.984;20.956;2022-07-29T11:54:25;5.50;;;1.40;;
65597;SDS011;52267;51.984;20.956;2022-07-29T11:57:01;3.90;;;1.10;;
65597;SDS011;52267;51.984;20.956;2022-07-29T11:59:28;5.70;;;2.00;;
65597;SDS011;52267;51.984;20.956;2022-07-29T12:01:58;4.40;;;1.20;;
65597;SDS011;52267;51.984;20.956;2022-07-29T12:04:26;2.30;;;0.90;;
65597;SDS011;52267;51.984;20.956;2022-07-29T12:06:53;3.00;;;1.10;;
65597;SDS011;52267;51.984;20.956;2022-07-29T12:09:22;3.30;;;1.20;;
65597;SDS011;52267;51.984;20.956;2022-07-29T12:11:59;5.10;;;1.40;;
65597;SDS011;52267;51.984;20.956;2022-07-29T12:14:28;3.90;;;1.10;;
65597;SDS011;52267;51.984;20.956;2022-07-29T12:16:56;2.20;;;0.90;;
65597;SDS011;52267;51.984;20.956;2022-07-29T12:19:24;3.70;;;1.30;;
65597;SDS011;52267;51.984;20.956;2022-07-29T12:21:53;3.40;;;1.40;;
65597;SDS011;52267;51.984;20.956;2022-07-29T12:24:21;3.90;;;1.30;;
65597;SDS011;52267;51.984;20.956;2022-07-29T12:26:50;2.30;;;0.90;;
65597;SDS011;52267;51.984;20.956;2022-07-29T12:29:24;2.70;;;1.20;;
65597;SDS011;52267;51.984;20.956;2022-07-29T12:31:54;3.00;;;1.20;;
65597;SDS011;52267;51.984;20.956;2022-07-29T12:34:23;1.90;;;0.90;;
65597;SDS011;52267;51.984;20.956;2022-07-29T12:36:50;1.90;;;1.00;;
65597;SDS011;52267;51.984;20.956;2022-07-29T12:39:18;3.00;;;1.10;;
65597;SDS011;52267;51.984;20.956;2022-07-29T12:41:46;3.70;;;1.20;;
65597;SDS011;52267;51.984;20.956;2022-07-29T12:44:13;4.50;;;1.10;;
65597;SDS011;52267;51.984;20.956;2022-07-29T12:46:40;2.70;;;0.90;;
65597;SDS011;52267;51.984;20.956;2022-07-29T12:49:07;2.80;;;1.10;;
65597;SDS011;52267;51.984;20.956;2022-07-29T12:51:37;2.40;;;1.10;;
65597;SDS011;52267;51.984;20.956;2022-07-29T12:54:11;2.30;;;1.00;;
65597;SDS011;52267;51.984;20.956;2022-07-29T12:56:41;3.40;;;1.20;;
65597;SDS011;52267;51.984;20.956;2022-07-29T12:59:20;2.60;;;1.20;;
65597;SDS011;52267;51.984;20.956;2022-07-29T13:01:50;2.40;;;1.30;;
65597;SDS011;52267;51.984;20.956;2022-07-29T13:04:33;3.30;;;1.00;;
65597;SDS011;52267;51.984;20.956;2022-07-29T13:07:06;1.90;;;1.10;;
65597;SDS011;52267;51.984;20.956;2022-07-29T13:09:44;3.10;;;1.20;;
65597;SDS011;52267;51.984;20.956;2022-07-29T13:12:14;3.60;;;1.00;;
65597;SDS011;52267;51.984;20.956;2022-07-29T13:14:46;2.00;;;0.90;;
65597;SDS011;52267;51.984;20.956;2022-07-29T13:17:19;2.30;;;1.00;;
65597;SDS011;52267;51.984;20.956;2022-07-29T13:20:04;4.40;;;1.20;;
65597;SDS011;52267;51.984;20.956;2022-07-29T13:22:35;3.90;;;1.20;;
65597;SDS011;52267;51.984;20.956;2022-07-29T13:25:03;3.70;;;1.00;;
65597;SDS011;52267;51.984;20.956;2022-07-29T13:27:32;2.80;;;1.00;;
65597;SDS011;52267;51.984;20.956;2022-07-29T13:30:03;3.20;;;1.00;;
65597;SDS011;52267;51.984;20.956;2022-07-29T13:32:32;1.90;;;1.10;;
65597;SDS011;52267;51.984;20.956;2022-07-29T13:35:06;4.90;;;1.20;;
65597;SDS011;52267;51.984;20.956;2022-07-29T13:37:35;3.70;;;1.20;;
65597;SDS011;52267;51.984;20.956;2022-07-29T13:40:08;2.10;;;1.10;;
65597;SDS011;52267;51.984;20.956;2022-07-29T13:42:37;4.00;;;1.10;;
65597;SDS011;52267;51.984;20.956;2022-07-29T13:45:04;2.80;;;1.10;;
65597;SDS011;52267;51.984;20.956;2022-07-29T13:47:33;2.80;;;1.10;;
65597;SDS011;52267;51.984;20.956;2022-07-29T13:50:00;2.20;;;1.10;;
65597;SDS011;52267;51.984;20.956;2022-07-29T13:52:29;2.30;;;0.90;;
65597;SDS011;52267;51.984;20.956;2022-07-29T13:54:56;3.60;;;1.00;;
65597;SDS011;52267;51.984;20.956;2022-07-29T13:57:23;3.30;;;1.10;;
65597;SDS011;52267;51.984;20.956;2022-07-29T13:59:50;2.50;;;0.90;;
65597;SDS011;52267;51.984;20.956;2022-07-29T14:02:17;2.70;;;1.20;;
65597;SDS011;52267;51.984;20.956;2022-07-29T14:04:44;1.90;;;0.90;;
65597;SDS011;52267;51.984;20.956;2022-07-29T14:07:11;2.50;;;1.20;;
65597;SDS011;52267;51.984;20.956;2022-07-29T14:09:39;2.50;;;0.90;;
65597;SDS011;52267;51.984;20.956;2022-07-29T14:12:06;2.50;;;1.00;;
65597;SDS011;52267;51.984;20.956;2022-07-29T14:14:33;1.60;;;0.90;;
65597;SDS011;52267;51.984;20.956;2022-07-29T14:17:02;1.90;;;0.90;;
65597;SDS011;52267;51.984;20.956;2022-07-29T14:19:29;3.90;;;1.20;;
65597;SDS011;52267;51.984;20.956;2022-07-29T14:21:58;2.40;;;1.10;;
65597;SDS011;52267;51.984;20.956;2022-07-29T14:24:25;3.50;;;1.20;;
65597;SDS011;52267;51.984;20.956;2022-07-29T14:26:52;2.30;;;1.10;;
65597;SDS011;52267;51.984;20.956;2022-07-29T14:29:19;2.70;;;1.20;;
65597;SDS011;52267;51.984;20.956;2022-07-29T14:31:46;3.10;;;1.00;;
65597;SDS011;52267;51.984;20.956;2022-07-29T14:34:13;2.10;;;1.30;;
65597;SDS011;52267;51.984;20.956;2022-07-29T14:36:41;3.30;;;1.30;;
65597;SDS011;52267;51.984;20.956;2022-07-29T14:39:09;2.80;;;1.20;;
65597;SDS011;52267;51.984;20.956;2022-07-29T14:41:37;3.30;;;1.20;;
65597;SDS011;52267;51.984;20.956;2022-07-29T14:44:04;2.40;;;1.00;;
65597;SDS011;52267;51.984;20.956;2022-07-29T14:46:31;3.50;;;1.10;;
65597;SDS011;52267;51.984;20.956;2022-07-29T14:48:58;2.90;;;1.10;;
65597;SDS011;52267;51.984;20.956;2022-07-29T14:51:26;2.30;;;1.10;;
65597;SDS011;52267;51.984;20.956;2022-07-29T14:53:53;3.20;;;1.10;;
65597;SDS011;52267;51.984;20.956;2022-07-29T14:56:20;1.80;;;1.00;;
65597;SDS011;52267;51.984;20.956;2022-07-29T14:58:47;3.00;;;1.30;;
65597;SDS011;52267;51.984;20.956;2022-07-29T15:01:14;2.70;;;1.00;;
65597;SDS011;52267;51.984;20.956;2022-07-29T15:03:41;3.40;;;1.00;;
65597;SDS011;52267;51.984;20.956;2022-07-29T15:06:08;3.10;;;1.40;;
65597;SDS011;52267;51.984;20.956;2022-07-29T15:08:35;2.10;;;1.10;;
65597;SDS011;52267;51.984;20.956;2022-07-29T15:11:02;4.10;;;1.00;;
65597;SDS011;52267;51.984;20.956;2022-07-29T15:13:29;2.90;;;1.10;;
65597;SDS011;52267;51.984;20.956;2022-07-29T15:15:56;3.40;;;1.00;;
65597;SDS011;52267;51.984;20.956;2022-07-29T15:18:23;1.70;;;1.00;;
65597;SDS011;52267;51.984;20.956;2022-07-29T15:20:50;3.00;;;0.90;;
65597;SDS011;52267;51.984;20.956;2022-07-29T15:23:17;1.70;;;0.80;;
65597;SDS011;52267;51.984;20.956;2022-07-29T15:25:44;3.40;;;1.20;;
65597;SDS011;52267;51.984;20.956;2022-07-29T15:28:11;4.60;;;1.30;;
65597;SDS011;52267;51.984;20.956;2022-07-29T15:30:38;3.40;;;1.20;;
65597;SDS011;52267;51.984;20.956;2022-07-29T15:33:08;3.60;;;1.20;;
65597;SDS011;52267;51.984;20.956;2022-07-29T15:35:36;6.30;;;2.20;;
65597;SDS011;52267;51.984;20.956;2022-07-29T15:38:04;3.00;;;1.20;;